createdAt,value
2018-10-09T00:00:13.374Z,95559.42
2018-10-09T00:02:39.749Z,95556.66
2018-10-09T00:05:06.149Z,95554.64
2018-10-09T00:07:32.605Z,95555.95
2018-10-09T00:09:59.012Z,95553.98
2018-10-09T00:12:25.393Z,95551.42
2018-10-09T00:14:51.765Z,95547.81
2018-10-09T00:17:18.172Z,95546.95
2018-10-09T00:19:44.624Z,95545.43
2018-10-09T00:22:11.041Z,95546.74
2018-10-09T00:24:37.461Z,95550.42
2018-10-09T00:27:03.897Z,95548.79
2018-10-09T00:29:30.264Z,95555.99
2018-10-09T00:31:56.686Z,95554.02
2018-10-09T00:34:23.101Z,95556.41
2018-10-09T00:36:49.526Z,95557.86
2018-10-09T00:39:15.886Z,95558.41
2018-10-09T00:41:42.307Z,95559.28
2018-10-09T00:44:08.678Z,95553.22
2018-10-09T00:46:35.183Z,95557.30
2018-10-09T00:49:01.617Z,95556.75
2018-10-09T00:51:28.051Z,95556.99
2018-10-09T00:53:54.432Z,95555.58
2018-10-09T00:56:20.920Z,95552.80
2018-10-09T00:58:47.291Z,95554.15
2018-10-09T01:01:13.668Z,95548.92
2018-10-09T01:03:40.336Z,95550.37
2018-10-09T01:06:06.720Z,95553.19
2018-10-09T01:08:33.099Z,95552.73
2018-10-09T01:10:59.467Z,95529.91
2018-10-09T01:13:25.859Z,95549.55
2018-10-09T01:15:52.268Z,95543.66
2018-10-09T01:18:18.704Z,95553.14
2018-10-09T01:20:45.146Z,95558.41
2018-10-09T01:23:11.592Z,95557.50
2018-10-09T01:25:37.973Z,95559.55
2018-10-09T01:28:04.347Z,95564.94
2018-10-09T01:30:30.744Z,95558.89
2018-10-09T01:32:57.167Z,95565.97
2018-10-09T01:35:23.737Z,95561.38
2018-10-09T01:37:50.170Z,95560.02
2018-10-09T01:40:16.598Z,95558.66
2018-10-09T01:42:42.965Z,95571.34
2018-10-09T01:45:09.381Z,95566.06
2018-10-09T01:47:35.781Z,95571.19
2018-10-09T01:50:02.140Z,95566.96
2018-10-09T01:52:28.525Z,95568.17
2018-10-09T01:54:54.903Z,95564.64
2018-10-09T01:57:21.317Z,95563.98
2018-10-09T01:59:47.833Z,95563.73
2018-10-09T02:02:14.193Z,95566.68
2018-10-09T02:04:40.585Z,95572.00
2018-10-09T02:07:06.948Z,95567.47
2018-10-09T02:09:33.383Z,95570.64
2018-10-09T02:11:59.780Z,95568.16
2018-10-09T02:14:26.149Z,95565.27
2018-10-09T02:16:52.542Z,95570.22
2018-10-09T02:19:19.006Z,95574.06
2018-10-09T02:21:45.377Z,95574.45
2018-10-09T02:24:11.777Z,95567.22
2018-10-09T02:26:38.180Z,95566.40
2018-10-09T02:29:04.612Z,95562.66
2018-10-09T02:31:31.070Z,95563.98
2018-10-09T02:33:57.477Z,95567.59
2018-10-09T02:36:23.903Z,95571.84
2018-10-09T02:38:50.313Z,95571.52
2018-10-09T02:41:16.772Z,95576.16
2018-10-09T02:43:43.136Z,95576.04
2018-10-09T02:46:09.565Z,95570.19
2018-10-09T02:48:36.004Z,95571.72
2018-10-09T02:51:02.443Z,95573.98
2018-10-09T02:53:28.869Z,95568.23
2018-10-09T02:55:55.228Z,95565.92
2018-10-09T02:58:21.631Z,95568.94
2018-10-09T03:00:48.060Z,95564.52
2018-10-09T03:03:14.536Z,95567.38
2018-10-09T03:05:40.935Z,95566.57
2018-10-09T03:08:07.372Z,95569.55
2018-10-09T03:10:33.783Z,95566.13
2018-10-09T03:13:00.259Z,95566.86
2018-10-09T03:15:26.892Z,95566.83
2018-10-09T03:17:53.310Z,95568.07
2018-10-09T03:20:19.725Z,95566.84
2018-10-09T03:22:46.116Z,95576.25
2018-10-09T03:25:12.548Z,95573.56
2018-10-09T03:27:38.905Z,95572.22
2018-10-09T03:30:05.315Z,95575.52
2018-10-09T03:32:31.795Z,95574.45
2018-10-09T03:34:58.221Z,95574.52
2018-10-09T03:37:24.677Z,95572.75
2018-10-09T03:39:51.106Z,95573.84
2018-10-09T03:42:17.520Z,95576.27
2018-10-09T03:44:43.909Z,95578.20
2018-10-09T03:47:10.399Z,95576.68
2018-10-09T03:49:36.863Z,95577.12
2018-10-09T03:52:03.312Z,95577.09
2018-10-09T03:54:29.705Z,95582.15
2018-10-09T03:56:56.071Z,95583.84
2018-10-09T03:59:22.504Z,95581.19
2018-10-09T04:01:49.013Z,95585.92
2018-10-09T04:04:15.637Z,95585.55
2018-10-09T04:06:42.036Z,95591.43
2018-10-09T04:09:08.468Z,95588.94
2018-10-09T04:11:34.870Z,95590.19
2018-10-09T04:14:01.304Z,95587.79
2018-10-09T04:16:27.838Z,95583.36
2018-10-09T04:18:54.299Z,95588.42
2018-10-09T04:21:20.726Z,95585.89
2018-10-09T04:23:47.085Z,95593.16
2018-10-09T04:26:13.467Z,95588.52
2018-10-09T04:28:39.866Z,95588.00
2018-10-09T04:31:06.279Z,95587.66
2018-10-09T04:33:32.668Z,95594.03
2018-10-09T04:35:59.090Z,95594.92
2018-10-09T04:38:25.478Z,95600.88
2018-10-09T04:40:51.927Z,95597.73
2018-10-09T04:43:18.392Z,95593.19
2018-10-09T04:45:44.916Z,95596.62
2018-10-09T04:48:11.303Z,95599.73
2018-10-09T04:50:37.830Z,95602.27
2018-10-09T04:53:04.261Z,95609.03
2018-10-09T04:55:30.641Z,95603.77
2018-10-09T04:57:57.017Z,95614.31
2018-10-09T05:00:23.448Z,95614.62
2018-10-09T05:02:49.860Z,95612.34
2018-10-09T05:05:16.224Z,95614.47
2018-10-09T05:07:42.638Z,95616.75
2018-10-09T05:10:09.041Z,95614.37
2018-10-09T05:12:35.581Z,95617.21
2018-10-09T05:15:02.178Z,95625.95
2018-10-09T05:17:28.752Z,95617.01
2018-10-09T05:19:55.210Z,95626.55
2018-10-09T05:22:21.621Z,95625.81
2018-10-09T05:24:47.996Z,95627.83
2018-10-09T05:27:14.510Z,95631.65
2018-10-09T05:29:40.913Z,95637.75
2018-10-09T05:32:07.417Z,95635.13
2018-10-09T05:34:33.812Z,95632.77
2018-10-09T05:37:00.244Z,95634.91
2018-10-09T05:39:26.621Z,95642.89
2018-10-09T05:41:53.428Z,95642.30
2018-10-09T05:44:19.941Z,95641.58
2018-10-09T05:46:46.301Z,95647.11
2018-10-09T05:49:12.810Z,95646.48
2018-10-09T05:51:39.184Z,95644.83
2018-10-09T05:54:05.573Z,95650.16
2018-10-09T05:56:32.012Z,95657.16
2018-10-09T05:58:58.410Z,95656.53
2018-10-09T06:01:24.843Z,95663.64
2018-10-09T06:03:51.267Z,95666.87
2018-10-09T06:06:17.649Z,95671.30
2018-10-09T06:08:44.712Z,95669.39
2018-10-09T06:11:11.120Z,95671.84
2018-10-09T06:13:37.537Z,95666.50
2018-10-09T06:16:04.057Z,95671.55
2018-10-09T06:18:30.681Z,95672.91
2018-10-09T06:20:57.072Z,95669.64
2018-10-09T06:23:23.921Z,95669.77
2018-10-09T06:25:50.397Z,95674.66
2018-10-09T06:28:16.801Z,95675.38
2018-10-09T06:30:43.357Z,95677.18
2018-10-09T06:33:09.825Z,95680.06
2018-10-09T06:35:36.287Z,95681.92
2018-10-09T06:38:02.690Z,95684.53
2018-10-09T06:40:29.342Z,95686.88
2018-10-09T06:42:55.800Z,95694.17
2018-10-09T06:45:22.217Z,95696.03
2018-10-09T06:47:48.987Z,95694.14
2018-10-09T06:50:15.395Z,95696.68
2018-10-09T06:52:41.887Z,95698.38
2018-10-09T06:55:08.402Z,95698.09
2018-10-09T06:57:34.836Z,95698.02
2018-10-09T07:00:01.419Z,95704.38
2018-10-09T07:02:28.429Z,95704.11
2018-10-09T07:04:54.896Z,95703.52
2018-10-09T07:07:22.058Z,95699.05
2018-10-09T07:09:53.443Z,95702.95
2018-10-09T07:12:21.458Z,95703.70
2018-10-09T07:14:48.098Z,95698.45
2018-10-09T07:17:15.653Z,95702.27
2018-10-09T07:19:42.236Z,95701.40
2018-10-09T07:22:11.668Z,95694.41
2018-10-09T07:24:38.302Z,95696.63
2018-10-09T07:27:04.806Z,95695.28
2018-10-09T07:29:31.313Z,95695.94
2018-10-09T07:32:00.918Z,95699.08
2018-10-09T07:34:29.192Z,95701.01
2018-10-09T07:36:56.549Z,95703.39
2018-10-09T07:39:23.056Z,95702.78
2018-10-09T07:41:49.660Z,95696.98
2018-10-09T07:44:16.396Z,95695.66
2018-10-09T07:46:42.859Z,95697.23
2018-10-09T07:49:09.255Z,95697.68
2018-10-09T07:51:35.748Z,95691.77
2018-10-09T07:54:02.150Z,95695.88
2018-10-09T07:56:28.584Z,95696.77
2018-10-09T07:58:55.147Z,95689.05
2018-10-09T08:01:21.675Z,95689.90
2018-10-09T08:03:48.229Z,95687.64
2018-10-09T08:06:14.770Z,95687.63
2018-10-09T08:08:41.202Z,95685.86
2018-10-09T08:11:07.664Z,95693.75
2018-10-09T08:13:34.105Z,95694.49
2018-10-09T08:16:00.569Z,95691.81
2018-10-09T08:18:26.989Z,95693.22
2018-10-09T08:20:53.483Z,95689.63
2018-10-09T08:23:20.482Z,95692.95
2018-10-09T08:25:47.306Z,95693.41
2018-10-09T08:28:13.798Z,95689.63
2018-10-09T08:30:40.202Z,95682.90
2018-10-09T08:33:06.650Z,95679.34
2018-10-09T08:35:33.091Z,95682.94
2018-10-09T08:37:59.538Z,95682.98
2018-10-09T08:40:26.043Z,95682.33
2018-10-09T08:42:52.472Z,95689.44
2018-10-09T08:45:18.953Z,95679.35
2018-10-09T08:47:45.386Z,95684.05
2018-10-09T08:50:11.936Z,95685.95
2018-10-09T08:52:38.378Z,95683.91
2018-10-09T08:55:04.824Z,95685.91
2018-10-09T08:57:31.275Z,95696.17
2018-10-09T08:59:57.754Z,95694.43
2018-10-09T09:02:24.181Z,95679.95
2018-10-09T09:04:50.598Z,95700.97
2018-10-09T09:07:17.050Z,95693.66
2018-10-09T09:09:43.610Z,95696.73
2018-10-09T09:12:10.026Z,95695.73
2018-10-09T09:14:36.496Z,95689.70
2018-10-09T09:17:02.956Z,95698.15
2018-10-09T09:19:29.367Z,95692.33
2018-10-09T09:21:55.817Z,95697.23
2018-10-09T09:24:22.233Z,95697.02
2018-10-09T09:26:48.686Z,95695.36
2018-10-09T09:29:15.108Z,95701.97
2018-10-09T09:31:41.586Z,95700.43
2018-10-09T09:34:08.079Z,95702.55
2018-10-09T09:36:34.480Z,95695.69
2018-10-09T09:39:00.961Z,95696.81
2018-10-09T09:41:27.370Z,95695.11
2018-10-09T09:43:53.774Z,95695.90
2018-10-09T09:46:20.291Z,95695.72
2018-10-09T09:48:46.696Z,95701.92
2018-10-09T09:51:13.201Z,95702.25
2018-10-09T09:53:39.605Z,95703.28
2018-10-09T09:56:06.135Z,95697.92
2018-10-09T09:58:32.774Z,95694.87
2018-10-09T10:00:59.136Z,95693.38
2018-10-09T10:03:25.570Z,95692.17
2018-10-09T10:05:52.083Z,95684.66
2018-10-09T10:08:19.456Z,95686.72
2018-10-09T10:10:46.097Z,95690.61
2018-10-09T10:13:12.512Z,95691.83
2018-10-09T10:15:38.992Z,95686.14
2018-10-09T10:18:05.503Z,95684.40
2018-10-09T10:20:31.925Z,95683.64
2018-10-09T10:22:58.468Z,95681.86
2018-10-09T10:25:25.084Z,95681.61
2018-10-09T10:27:52.331Z,95678.95
2018-10-09T10:30:18.838Z,95683.27
2018-10-09T10:32:45.322Z,95676.91
2018-10-09T10:35:11.754Z,95673.25
2018-10-09T10:37:38.301Z,95666.27
2018-10-09T10:40:04.804Z,95665.39
2018-10-09T10:42:31.335Z,95662.13
2018-10-09T10:44:57.742Z,95656.81
2018-10-09T10:47:24.222Z,95658.57
2018-10-09T10:49:50.763Z,95660.02
2018-10-09T10:52:17.193Z,95654.86
2018-10-09T10:54:43.665Z,95649.09
2018-10-09T10:57:10.134Z,95652.31
2018-10-09T10:59:36.726Z,95650.66
2018-10-09T11:02:03.418Z,95648.81
2018-10-09T11:04:30.412Z,95656.87
2018-10-09T11:06:56.956Z,95650.20
2018-10-09T11:09:23.398Z,95650.04
2018-10-09T11:11:50.100Z,95643.15
2018-10-09T11:14:16.502Z,95643.80
2018-10-09T11:16:43.054Z,95645.44
2018-10-09T11:19:09.826Z,95642.27
2018-10-09T11:21:36.635Z,95640.61
2018-10-09T11:24:04.163Z,95636.66
2018-10-09T11:26:30.768Z,95632.74
2018-10-09T11:28:57.398Z,95641.44
2018-10-09T11:31:23.901Z,95635.21
2018-10-09T11:33:50.342Z,95640.23
2018-10-09T11:36:16.740Z,95643.06
2018-10-09T11:38:43.208Z,95637.50
2018-10-09T11:41:09.655Z,95640.16
2018-10-09T11:43:36.159Z,95639.45
2018-10-09T11:46:02.688Z,95642.12
2018-10-09T11:48:29.168Z,95645.98
2018-10-09T11:50:55.670Z,95632.17
2018-10-09T11:53:22.068Z,95634.53
2018-10-09T11:55:48.581Z,95627.40
2018-10-09T11:58:15.006Z,95628.11
2018-10-09T12:00:41.581Z,95628.52
2018-10-09T12:03:08.148Z,95626.75
2018-10-09T12:05:34.738Z,95628.39
2018-10-09T12:08:01.116Z,95616.88
2018-10-09T12:10:27.567Z,95623.44
2018-10-09T12:12:53.977Z,95627.40
2018-10-09T12:15:20.549Z,95624.97
2018-10-09T12:17:47.030Z,95628.89
2018-10-09T12:20:13.475Z,95630.62
2018-10-09T12:22:40.013Z,95626.94
2018-10-09T12:25:06.444Z,95631.88
2018-10-09T12:27:33.085Z,95621.55
2018-10-09T12:29:59.519Z,95632.33
2018-10-09T12:32:25.984Z,95625.74
2018-10-09T12:34:52.493Z,95622.16
2018-10-09T12:37:19.056Z,95631.73
2018-10-09T12:39:45.767Z,95633.75
2018-10-09T12:42:12.213Z,95622.37
2018-10-09T12:44:38.639Z,95623.70
2018-10-09T12:47:05.071Z,95634.36
2018-10-09T12:49:31.484Z,95624.93
2018-10-09T12:51:57.953Z,95639.91
2018-10-09T12:54:24.397Z,95630.64
2018-10-09T12:56:50.828Z,95625.33
2018-10-09T12:59:17.264Z,95627.70
2018-10-09T13:01:43.769Z,95629.53
2018-10-09T13:04:10.207Z,95630.34
2018-10-09T13:06:36.757Z,95628.47
2018-10-09T13:09:03.270Z,95628.09
2018-10-09T13:11:29.932Z,95613.59
2018-10-09T13:13:56.344Z,95621.30
2018-10-09T13:16:22.791Z,95618.29
2018-10-09T13:18:49.233Z,95616.80
2018-10-09T13:21:16.779Z,95613.38
2018-10-09T13:23:43.090Z,95610.57
2018-10-09T13:26:09.563Z,95618.16
2018-10-09T13:28:36.061Z,95619.73
2018-10-09T13:31:02.582Z,95621.19
2018-10-09T13:33:28.945Z,95617.93
2018-10-09T13:35:55.378Z,95614.55
2018-10-09T13:38:21.886Z,95611.55
2018-10-09T13:40:48.258Z,95611.92
2018-10-09T13:43:14.659Z,95605.32
2018-10-09T13:45:43.272Z,95608.66
2018-10-09T13:48:09.735Z,95606.41
2018-10-09T13:50:36.329Z,95614.33
2018-10-09T13:53:03.725Z,95604.95
2018-10-09T13:55:30.363Z,95607.09
2018-10-09T13:57:56.904Z,95614.20
2018-10-09T14:00:23.525Z,95608.06
2018-10-09T14:02:50.024Z,95614.73
2018-10-09T14:05:16.387Z,95607.31
2018-10-09T14:07:42.840Z,95598.38
2018-10-09T14:10:09.362Z,95607.89
2018-10-09T14:12:35.749Z,95607.70
2018-10-09T14:15:02.282Z,95606.31
2018-10-09T14:17:28.807Z,95608.75
2018-10-09T14:19:55.345Z,95606.77
2018-10-09T14:22:21.901Z,95608.70
2018-10-09T14:24:48.480Z,95612.28
2018-10-09T14:27:14.949Z,95614.26
2018-10-09T14:29:41.372Z,95618.34
2018-10-09T14:32:07.778Z,95614.48
2018-10-09T14:34:34.241Z,95616.86
2018-10-09T14:37:00.689Z,95621.65
2018-10-09T14:39:27.134Z,95618.20
2018-10-09T14:41:53.575Z,95623.09
2018-10-09T14:44:20.432Z,95626.79
2018-10-09T14:46:46.906Z,95622.09
2018-10-09T14:49:13.384Z,95619.88
2018-10-09T14:51:39.775Z,95623.16
2018-10-09T14:54:06.160Z,95621.12
2018-10-09T14:56:32.656Z,95615.40
2018-10-09T14:58:59.085Z,95623.28
2018-10-09T15:01:25.492Z,95623.38
2018-10-09T15:03:51.946Z,95618.03
2018-10-09T15:06:18.329Z,95621.89
2018-10-09T15:08:44.941Z,95620.13
2018-10-09T15:11:11.702Z,95621.97
2018-10-09T15:13:38.167Z,95626.81
2018-10-09T15:16:04.599Z,95627.27
2018-10-09T15:18:31.123Z,95632.84
2018-10-09T15:20:57.566Z,95630.90
2018-10-09T15:23:24.131Z,95630.95
2018-10-09T15:25:50.564Z,95634.81
2018-10-09T15:28:17.099Z,95632.36
2018-10-09T15:30:43.576Z,95634.94
2018-10-09T15:33:10.050Z,95635.84
2018-10-09T15:35:36.419Z,95635.76
2018-10-09T15:38:02.792Z,95643.41
2018-10-09T15:40:29.244Z,95647.03
2018-10-09T15:42:55.696Z,95643.16
2018-10-09T15:45:22.067Z,95641.33
2018-10-09T15:47:48.544Z,95645.45
2018-10-09T15:50:14.968Z,95642.30
2018-10-09T15:52:41.444Z,95649.67
2018-10-09T15:55:07.931Z,95652.09
2018-10-09T15:57:34.386Z,95656.18
2018-10-09T16:00:00.819Z,95660.09
2018-10-09T16:02:27.233Z,95659.84
2018-10-09T16:04:53.646Z,95657.65
2018-10-09T16:07:20.016Z,95661.70
2018-10-09T16:09:46.437Z,95667.34
2018-10-09T16:12:12.855Z,95674.20
2018-10-09T16:14:39.356Z,95677.59
2018-10-09T16:17:05.825Z,95673.43
2018-10-09T16:19:32.234Z,95672.95
2018-10-09T16:21:58.618Z,95684.06
2018-10-09T16:24:25.135Z,95682.95
2018-10-09T16:26:51.569Z,95684.98
2018-10-09T16:29:17.991Z,95686.55
2018-10-09T16:31:44.425Z,95696.35
2018-10-09T16:34:10.858Z,95694.28
2018-10-09T16:36:37.287Z,95693.36
2018-10-09T16:39:03.737Z,95692.16
2018-10-09T16:41:30.186Z,95697.28
2018-10-09T16:43:56.589Z,95698.61
2018-10-09T16:46:23.103Z,95695.73
2018-10-09T16:48:49.526Z,95697.89
2018-10-09T16:51:15.983Z,95704.34
2018-10-09T16:53:42.460Z,95701.09
2018-10-09T16:56:08.905Z,95703.75
2018-10-09T16:58:35.330Z,95705.50
2018-10-09T17:01:01.782Z,95704.41
2018-10-09T17:03:28.194Z,95707.98
2018-10-09T17:05:54.627Z,95712.73
2018-10-09T17:08:21.075Z,95716.05
2018-10-09T17:10:47.545Z,95722.20
2018-10-09T17:13:14.001Z,95717.53
2018-10-09T17:15:40.480Z,95717.44
2018-10-09T17:18:06.938Z,95716.63
2018-10-09T17:20:33.317Z,95722.61
2018-10-09T17:22:59.733Z,95721.17
2018-10-09T17:25:26.145Z,95726.67
2018-10-09T17:27:52.598Z,95734.48
2018-10-09T17:30:18.986Z,95732.73
2018-10-09T17:32:45.382Z,95733.13
2018-10-09T17:35:11.827Z,95736.42
2018-10-09T17:37:38.402Z,95738.89
2018-10-09T17:40:04.769Z,95733.33
2018-10-09T17:42:31.198Z,95729.22
2018-10-09T17:44:57.730Z,95739.58
2018-10-09T17:47:24.139Z,95736.81
2018-10-09T17:49:50.572Z,95740.04
2018-10-09T17:52:16.960Z,95747.16
2018-10-09T17:54:43.370Z,95747.40
2018-10-09T17:57:09.805Z,95745.47
2018-10-09T17:59:36.260Z,95756.11
2018-10-09T18:02:02.726Z,95758.53
2018-10-09T18:04:29.094Z,95760.01
2018-10-09T18:06:55.538Z,95762.69
2018-10-09T18:09:21.988Z,95762.47
2018-10-09T18:11:48.401Z,95763.11
2018-10-09T18:14:14.786Z,95769.27
2018-10-09T18:16:41.227Z,95769.99
2018-10-09T18:19:07.762Z,95770.33
2018-10-09T18:21:34.193Z,95775.52
2018-10-09T18:24:00.550Z,95773.63
2018-10-09T18:26:26.985Z,95776.13
2018-10-09T18:28:53.425Z,95780.52
2018-10-09T18:31:19.850Z,95777.59
2018-10-09T18:33:46.284Z,95782.86
2018-10-09T18:36:12.677Z,95786.22
2018-10-09T18:38:39.113Z,95782.73
2018-10-09T18:41:05.614Z,95783.88
2018-10-09T18:43:32.012Z,95786.41
2018-10-09T18:45:58.434Z,95790.41
2018-10-09T18:48:24.849Z,95792.38
2018-10-09T18:50:51.238Z,95792.61
2018-10-09T18:53:17.700Z,95795.59
2018-10-09T18:55:44.143Z,95797.45
2018-10-09T18:58:10.558Z,95803.04
2018-10-09T19:00:36.990Z,95799.33
2018-10-09T19:03:04.249Z,95800.87
2018-10-09T19:05:30.688Z,95797.23
2018-10-09T19:07:57.110Z,95803.27
2018-10-09T19:10:23.517Z,95816.65
2018-10-09T19:12:49.893Z,95810.96
2018-10-09T19:15:16.334Z,95815.07
2018-10-09T19:17:43.188Z,95816.36
2018-10-09T19:20:09.626Z,95818.73
2018-10-09T19:22:36.133Z,95816.68
2018-10-09T19:25:02.597Z,95821.87
2018-10-09T19:27:29.008Z,95820.31
2018-10-09T19:29:55.421Z,95819.38
2018-10-09T19:32:21.906Z,95823.09
2018-10-09T19:34:48.303Z,95825.25
2018-10-09T19:37:14.690Z,95831.92
2018-10-09T19:39:41.126Z,95836.18
2018-10-09T19:42:07.481Z,95832.09
2018-10-09T19:44:33.910Z,95845.80
2018-10-09T19:47:00.361Z,95839.28
2018-10-09T19:49:26.753Z,95849.87
2018-10-09T19:51:53.216Z,95851.91
2018-10-09T19:54:19.657Z,95845.39
2018-10-09T19:56:46.052Z,95850.46
2018-10-09T19:59:12.557Z,95852.79
2018-10-09T20:01:38.888Z,95854.94
2018-10-09T20:04:05.282Z,95851.02
2018-10-09T20:06:31.751Z,95852.95
2018-10-09T20:08:58.140Z,95858.61
2018-10-09T20:11:24.578Z,95853.02
2018-10-09T20:13:51.246Z,95853.30
2018-10-09T20:16:17.678Z,95860.06
2018-10-09T20:18:44.065Z,95858.82
2018-10-09T20:21:10.513Z,95855.17
2018-10-09T20:23:36.942Z,95852.05
2018-10-09T20:26:03.373Z,95860.34
2018-10-09T20:28:29.771Z,95861.73
2018-10-09T20:30:56.146Z,95856.21
2018-10-09T20:33:22.599Z,95864.98
2018-10-09T20:35:48.962Z,95863.25
2018-10-09T20:38:15.336Z,95863.45
2018-10-09T20:40:41.706Z,95866.09
2018-10-09T20:43:08.095Z,95861.48
2018-10-09T20:45:34.498Z,95866.36
2018-10-09T20:48:00.975Z,95862.36
2018-10-09T20:50:27.361Z,95866.58
2018-10-09T20:52:53.792Z,95875.88
2018-10-09T20:55:20.261Z,95868.28
2018-10-09T20:57:46.666Z,95869.48
2018-10-09T21:00:13.054Z,95865.48
2018-10-09T21:02:39.460Z,95873.50
2018-10-09T21:05:05.890Z,95867.56
2018-10-09T21:07:32.283Z,95876.33
2018-10-09T21:09:58.721Z,95875.50
2018-10-09T21:12:25.161Z,95880.28
2018-10-09T21:14:51.722Z,95877.87
2018-10-09T21:17:18.112Z,95877.37
2018-10-09T21:19:44.513Z,95873.84
2018-10-09T21:22:10.925Z,95873.33
2018-10-09T21:24:37.399Z,95876.31
2018-10-09T21:27:03.789Z,95873.75
2018-10-09T21:29:30.250Z,95879.49
2018-10-09T21:31:56.655Z,95873.95
2018-10-09T21:34:23.140Z,95877.60
2018-10-09T21:36:49.519Z,95881.52
2018-10-09T21:39:15.952Z,95881.00
2018-10-09T21:41:42.386Z,95881.03
2018-10-09T21:44:08.760Z,95884.91
2018-10-09T21:46:35.143Z,95884.78
2018-10-09T21:49:01.547Z,95884.27
2018-10-09T21:51:27.937Z,95884.08
2018-10-09T21:53:54.342Z,95886.55
2018-10-09T21:56:20.773Z,95887.99
2018-10-09T21:58:47.202Z,95885.55
2018-10-09T22:01:13.627Z,95887.67
2018-10-09T22:03:40.003Z,95887.35
2018-10-09T22:06:06.402Z,95887.89
2018-10-09T22:08:32.824Z,95880.23
2018-10-09T22:10:59.195Z,95885.04
2018-10-09T22:13:25.591Z,95880.10
2018-10-09T22:15:52.558Z,95879.52
2018-10-09T22:18:18.947Z,95880.30
2018-10-09T22:20:45.430Z,95880.39
2018-10-09T22:23:11.818Z,95875.80
2018-10-09T22:25:38.188Z,95878.24
2018-10-09T22:28:04.659Z,95873.41
2018-10-09T22:30:31.104Z,95880.87
2018-10-09T22:32:57.525Z,95872.63
2018-10-09T22:35:23.934Z,95870.80
2018-10-09T22:37:50.330Z,95872.98
2018-10-09T22:40:16.728Z,95873.14
2018-10-09T22:42:43.099Z,95874.39
2018-10-09T22:45:09.537Z,95873.46
2018-10-09T22:47:35.929Z,95876.38
2018-10-09T22:50:02.394Z,95871.72
2018-10-09T22:52:28.843Z,95869.52
2018-10-09T22:54:55.383Z,95873.72
2018-10-09T22:57:21.799Z,95870.28
2018-10-09T22:59:48.165Z,95872.33
2018-10-09T23:02:14.617Z,95873.29
2018-10-09T23:04:41.090Z,95876.56
2018-10-09T23:07:07.519Z,95878.45
2018-10-09T23:09:33.885Z,95877.20
2018-10-09T23:12:00.292Z,95869.51
2018-10-09T23:14:26.738Z,95869.34
2018-10-09T23:16:53.220Z,95871.72
2018-10-09T23:19:19.673Z,95874.20
2018-10-09T23:21:46.119Z,95878.05
2018-10-09T23:24:12.568Z,95878.98
2018-10-09T23:26:39.008Z,95881.62
2018-10-09T23:29:05.422Z,95874.05
2018-10-09T23:31:31.801Z,95870.80
2018-10-09T23:33:58.200Z,95873.78
2018-10-09T23:36:24.635Z,95871.02
2018-10-09T23:38:51.029Z,95867.36
2018-10-09T23:41:17.398Z,95875.73
2018-10-09T23:43:43.822Z,95874.57
2018-10-09T23:46:10.260Z,95872.04
2018-10-09T23:48:36.661Z,95873.21
2018-10-09T23:51:03.027Z,95867.30
2018-10-09T23:53:29.439Z,95870.62
2018-10-09T23:55:55.898Z,95867.91
2018-10-09T23:58:22.305Z,95871.03
